Time;durP1;ratioP1;P1;durP2;ratioP2;P2;SDS_P1;SDS_P2;PMS_P1;PMS_P2;Temp;Humidity;BMP_temperature;BMP_pressure;BME280_temperature;BME280_humidity;BME280_pressure;Samples;Min_cycle;Max_cycle;Signal;HPM_P1;HPM_P2
2023/07/26 00:02:09;;;;;;;;;;;15.70;99.90;;;;;;5045983;28;19921;-84
2023/07/26 00:04:34;;;;;;;;;;;15.70;99.90;;;;;;5043352;28;20031;-83
2023/07/26 00:07:00;;;;;;;;;;;15.60;99.90;;;;;;5049366;28;20015;-86
2023/07/26 00:09:25;;;;;;;;;;;15.60;99.90;;;;;;5045495;28;19928;-84
2023/07/26 00:11:51;;;;;;;;;;;15.50;99.90;;;;;;5038811;28;20012;-84
2023/07/26 00:14:16;;;;;;;;;;;15.50;99.90;;;;;;5036271;28;19924;-85
2023/07/26 00:16:42;;;;;;;;;;;15.50;99.90;;;;;;5037836;28;19948;-85
2023/07/26 00:19:07;;;;;;;;;;;15.50;99.90;;;;;;5047542;28;20294;-85
2023/07/26 00:21:33;;;;;;;;;;;15.50;99.90;;;;;;5038650;28;19925;-85
2023/07/26 00:23:59;;;;;;;;;;;15.50;99.90;;;;;;5036931;28;19921;-84
2023/07/26 00:26:25;;;;;;;;;;;15.40;99.90;;;;;;5052659;28;19967;-83
2023/07/26 00:28:51;;;;;;;;;;;15.40;99.90;;;;;;5037493;28;19913;-86
2023/07/26 00:31:16;;;;;;;;;;;15.30;99.90;;;;;;5053114;28;19920;-85
2023/07/26 00:33:42;;;;;;;;;;;15.30;99.90;;;;;;5040679;28;19932;-83
2023/07/26 00:36:07;;;;;;;;;;;15.20;99.90;;;;;;5037754;28;20412;-83
2023/07/26 00:38:33;;;;;;;;;;;15.10;99.90;;;;;;5042056;28;19921;-83
2023/07/26 00:40:58;;;;;;;;;;;15.00;99.90;;;;;;5044311;28;22449;-83
2023/07/26 00:43:24;;;;;;;;;;;15.00;99.90;;;;;;5035643;28;19923;-82
2023/07/26 00:45:50;;;;;;;;;;;14.90;99.90;;;;;;5041357;28;19956;-84
2023/07/26 00:48:15;;;;;;;;;;;14.90;99.90;;;;;;5036541;28;20374;-82
2023/07/26 00:50:41;;;;;;;;;;;14.90;99.90;;;;;;5044841;28;19947;-82
2023/07/26 00:53:07;;;;;;;;;;;14.90;99.90;;;;;;5052149;28;19921;-83
2023/07/26 00:55:34;;;;;;;;;;;14.80;99.90;;;;;;5035935;28;19924;-84
2023/07/26 00:58:00;;;;;;;;;;;14.80;99.90;;;;;;5036061;28;19975;-83
2023/07/26 01:00:25;;;;;;;;;;;14.80;99.90;;;;;;5035488;28;20339;-83
2023/07/26 01:02:51;;;;;;;;;;;14.70;99.90;;;;;;5052669;28;19925;-83
2023/07/26 01:05:17;;;;;;;;;;;14.60;99.90;;;;;;5049353;28;19913;-83
2023/07/26 01:07:42;;;;;;;;;;;14.60;99.90;;;;;;5037102;28;20020;-84
2023/07/26 01:10:16;;;;;;;;;;;14.50;99.90;;;;;;5036319;28;19921;-82
2023/07/26 01:13:08;;;;;;;;;;;14.50;99.90;;;;;;5035330;28;19963;-85
2023/07/26 01:15:36;;;;;;;;;;;14.40;99.90;;;;;;5037671;28;19924;-84
2023/07/26 01:18:07;;;;;;;;;;;14.30;99.90;;;;;;5052110;28;19913;-84
2023/07/26 01:20:33;;;;;;;;;;;14.30;99.90;;;;;;5035339;28;19967;-83
2023/07/26 01:22:59;;;;;;;;;;;14.20;99.90;;;;;;5036228;28;20007;-85
2023/07/26 01:25:24;;;;;;;;;;;14.20;99.90;;;;;;5037161;28;20078;-84
2023/07/26 01:27:50;;;;;;;;;;;14.20;99.90;;;;;;5037135;28;21153;-82
2023/07/26 01:30:15;;;;;;;;;;;14.10;99.90;;;;;;5036576;28;19921;-84
2023/07/26 01:32:41;;;;;;;;;;;14.10;99.90;;;;;;5036596;28;19925;-83
2023/07/26 01:35:07;;;;;;;;;;;14.00;99.90;;;;;;5035490;28;19913;-83
2023/07/26 01:37:33;;;;;;;;;;;14.00;99.90;;;;;;5052171;28;19956;-84
2023/07/26 01:39:58;;;;;;;;;;;14.00;99.90;;;;;;5034669;28;19964;-85
2023/07/26 01:42:24;;;;;;;;;;;13.90;99.90;;;;;;5051643;28;19920;-85
2023/07/26 01:44:49;;;;;;;;;;;13.90;99.90;;;;;;5037569;28;20576;-84
2023/07/26 01:47:15;;;;;;;;;;;13.90;99.90;;;;;;5036817;28;20317;-85
2023/07/26 01:49:41;;;;;;;;;;;13.90;99.90;;;;;;5045049;28;19960;-84
2023/07/26 01:52:06;;;;;;;;;;;13.80;99.90;;;;;;5035594;28;19967;-83
2023/07/26 01:54:32;;;;;;;;;;;13.80;99.90;;;;;;5036554;28;19921;-85
2023/07/26 01:56:57;;;;;;;;;;;13.80;99.90;;;;;;5030793;28;21220;-84
2023/07/26 01:59:23;;;;;;;;;;;13.70;99.90;;;;;;5035039;28;19917;-84
2023/07/26 02:01:48;;;;;;;;;;;13.70;99.90;;;;;;5036065;28;19996;-84
2023/07/26 02:04:14;;;;;;;;;;;13.70;99.90;;;;;;5034619;28;19924;-83
2023/07/26 02:06:39;;;;;;;;;;;13.60;99.90;;;;;;5034929;28;22357;-85
2023/07/26 02:09:05;;;;;;;;;;;13.60;99.90;;;;;;5036391;28;19921;-83
2023/07/26 02:11:31;;;;;;;;;;;13.60;99.90;;;;;;5045741;28;20007;-84
2023/07/26 02:13:56;;;;;;;;;;;13.50;99.90;;;;;;5032756;28;19996;-84
2023/07/26 02:16:22;;;;;;;;;;;13.50;99.90;;;;;;5034167;28;19927;-84
2023/07/26 02:18:47;;;;;;;;;;;13.40;99.90;;;;;;5034421;28;20023;-83
2023/07/26 02:21:13;;;;;;;;;;;13.40;99.90;;;;;;5044977;28;20291;-85
2023/07/26 02:23:38;;;;;;;;;;;13.40;99.90;;;;;;5049670;28;19913;-84
2023/07/26 02:26:04;;;;;;;;;;;13.40;99.90;;;;;;5036045;28;20351;-84
2023/07/26 02:28:30;;;;;;;;;;;13.40;99.90;;;;;;5035661;28;20370;-84
2023/07/26 02:30:55;;;;;;;;;;;13.30;99.90;;;;;;5034916;28;20536;-83
2023/07/26 02:33:21;;;;;;;;;;;13.30;99.90;;;;;;5033382;28;20371;-83
2023/07/26 02:35:47;;;;;;;;;;;13.30;99.90;;;;;;5050999;28;19917;-84
2023/07/26 02:38:13;;;;;;;;;;;13.20;99.90;;;;;;5033986;28;19952;-83
2023/07/26 02:40:38;;;;;;;;;;;13.10;99.90;;;;;;5045260;28;19956;-84
2023/07/26 02:43:04;;;;;;;;;;;13.10;99.90;;;;;;5034241;28;19917;-83
2023/07/26 02:45:29;;;;;;;;;;;13.00;99.90;;;;;;5033322;28;19967;-83
2023/07/26 02:47:55;;;;;;;;;;;13.00;99.90;;;;;;5034772;28;19932;-83
2023/07/26 02:50:20;;;;;;;;;;;13.00;99.90;;;;;;5033888;28;19975;-84
2023/07/26 02:52:46;;;;;;;;;;;12.90;99.90;;;;;;5033501;28;19912;-84
2023/07/26 02:55:11;;;;;;;;;;;12.90;99.90;;;;;;5049810;28;19913;-85
2023/07/26 02:57:37;;;;;;;;;;;12.80;99.90;;;;;;5036815;28;19923;-85
2023/07/26 03:00:03;;;;;;;;;;;12.80;99.90;;;;;;5035521;28;19931;-85
2023/07/26 03:02:28;;;;;;;;;;;12.80;99.90;;;;;;5043871;28;19925;-83
2023/07/26 03:04:54;;;;;;;;;;;12.70;99.90;;;;;;5035864;28;20382;-85
2023/07/26 03:07:19;;;;;;;;;;;12.70;99.90;;;;;;5050767;28;19921;-84
2023/07/26 03:09:45;;;;;;;;;;;12.70;99.90;;;;;;5036568;28;19921;-85
2023/07/26 03:12:10;;;;;;;;;;;12.60;99.90;;;;;;5051270;28;19917;-82
2023/07/26 03:14:40;;;;;;;;;;;12.60;99.90;;;;;;5034208;28;20003;-83
2023/07/26 03:17:06;;;;;;;;;;;12.60;99.90;;;;;;5039950;28;19921;-84
2023/07/26 03:19:31;;;;;;;;;;;12.60;99.90;;;;;;5034942;28;19921;-83
2023/07/26 03:21:57;;;;;;;;;;;12.50;99.90;;;;;;5048844;28;19940;-83
2023/07/26 03:24:23;;;;;;;;;;;12.50;99.90;;;;;;5034486;28;19925;-83
2023/07/26 03:26:48;;;;;;;;;;;12.40;99.90;;;;;;5050376;28;20540;-83
2023/07/26 03:29:14;;;;;;;;;;;12.40;99.90;;;;;;5043096;28;19921;-83
2023/07/26 03:31:39;;;;;;;;;;;12.40;99.90;;;;;;5034140;28;19917;-82
2023/07/26 03:34:05;;;;;;;;;;;12.30;99.90;;;;;;5033479;28;19943;-84
2023/07/26 03:36:31;;;;;;;;;;;12.30;99.90;;;;;;5032728;28;20677;-84
2023/07/26 03:38:56;;;;;;;;;;;12.30;99.90;;;;;;5036089;28;19912;-84
2023/07/26 03:41:22;;;;;;;;;;;12.30;99.90;;;;;;5044235;28;19925;-85
2023/07/26 03:43:50;;;;;;;;;;;12.20;99.90;;;;;;5049890;28;19913;-84
2023/07/26 03:46:16;;;;;;;;;;;12.20;99.90;;;;;;5050647;28;19927;-84
2023/07/26 03:48:43;;;;;;;;;;;12.20;99.90;;;;;;5049398;28;20511;-86
2023/07/26 03:51:08;;;;;;;;;;;12.20;99.90;;;;;;5034265;28;19917;-86
2023/07/26 03:53:34;;;;;;;;;;;12.10;99.90;;;;;;5033852;28;20563;-85
2023/07/26 03:55:59;;;;;;;;;;;12.20;99.90;;;;;;5036068;28;20570;-85
2023/07/26 03:58:25;;;;;;;;;;;12.10;99.90;;;;;;5035218;28;19919;-86
2023/07/26 04:00:50;;;;;;;;;;;12.10;99.90;;;;;;5033707;28;19926;-84
2023/07/26 04:03:16;;;;;;;;;;;12.10;99.90;;;;;;5048613;28;19925;-85
2023/07/26 04:05:42;;;;;;;;;;;12.10;99.90;;;;;;5049423;28;20015;-85
2023/07/26 04:08:07;;;;;;;;;;;12.10;99.90;;;;;;5042496;28;20015;-85
2023/07/26 04:10:33;;;;;;;;;;;12.10;99.90;;;;;;5038484;28;20372;-85
2023/07/26 04:12:58;;;;;;;;;;;12.10;99.90;;;;;;5049314;28;19928;-85
2023/07/26 04:15:25;;;;;;;;;;;12.10;99.90;;;;;;5047962;28;19920;-86
2023/07/26 04:17:50;;;;;;;;;;;12.10;99.90;;;;;;5048256;28;19919;-85
2023/07/26 04:20:16;;;;;;;;;;;12.10;99.90;;;;;;5032344;28;19926;-85
2023/07/26 04:22:42;;;;;;;;;;;12.10;99.90;;;;;;5047950;28;20018;-84
2023/07/26 04:25:07;;;;;;;;;;;12.20;99.90;;;;;;5034199;28;20279;-84
2023/07/26 04:27:33;;;;;;;;;;;12.20;99.90;;;;;;5048927;28;19917;-86
2023/07/26 04:30:01;;;;;;;;;;;12.30;99.90;;;;;;5032123;28;19920;-84
2023/07/26 04:32:27;;;;;;;;;;;12.40;99.90;;;;;;5033140;28;20070;-84
2023/07/26 04:34:52;;;;;;;;;;;12.40;99.90;;;;;;5049687;28;20067;-84
2023/07/26 04:37:18;;;;;;;;;;;12.40;99.90;;;;;;5048391;28;19917;-84
2023/07/26 04:39:45;;;;;;;;;;;12.50;99.90;;;;;;5034527;28;20412;-86
2023/07/26 04:42:10;;;;;;;;;;;12.50;99.90;;;;;;5032870;28;21013;-85
2023/07/26 04:44:36;;;;;;;;;;;12.60;99.90;;;;;;5032010;28;19917;-85
2023/07/26 04:47:02;;;;;;;;;;;12.60;99.90;;;;;;5046009;28;19917;-86
2023/07/26 04:49:27;;;;;;;;;;;12.60;99.90;;;;;;5047493;28;20430;-86
2023/07/26 04:51:53;;;;;;;;;;;12.60;99.90;;;;;;5048861;28;19917;-86
2023/07/26 04:54:18;;;;;;;;;;;12.60;99.90;;;;;;5045167;28;19916;-85
2023/07/26 04:56:44;;;;;;;;;;;12.70;99.90;;;;;;5034852;28;19975;-84
2023/07/26 04:59:09;;;;;;;;;;;12.70;99.90;;;;;;5048955;28;20260;-85
2023/07/26 05:01:35;;;;;;;;;;;12.70;99.90;;;;;;5033931;28;19925;-84
2023/07/26 05:04:00;;;;;;;;;;;12.70;99.90;;;;;;5032210;28;19968;-84
2023/07/26 05:06:26;;;;;;;;;;;12.80;99.90;;;;;;5049157;28;19950;-84
2023/07/26 05:08:51;;;;;;;;;;;12.80;99.90;;;;;;5035986;28;20903;-84
2023/07/26 05:11:20;;;;;;;;;;;12.90;99.90;;;;;;5033809;28;19917;-84
2023/07/26 05:13:46;;;;;;;;;;;12.90;99.90;;;;;;5034186;28;20004;-84
2023/07/26 05:16:12;;;;;;;;;;;12.90;99.90;;;;;;5041415;28;19944;-85
2023/07/26 05:18:37;;;;;;;;;;;13.00;99.90;;;;;;5032865;28;20051;-84
2023/07/26 05:21:03;;;;;;;;;;;13.00;99.90;;;;;;5049525;28;20454;-84
2023/07/26 05:23:28;;;;;;;;;;;13.00;99.90;;;;;;5044647;28;19917;-85
2023/07/26 05:25:54;;;;;;;;;;;13.10;99.90;;;;;;5050491;28;19920;-85
2023/07/26 05:28:20;;;;;;;;;;;13.10;99.90;;;;;;5035321;28;19921;-84
2023/07/26 05:30:46;;;;;;;;;;;13.20;99.90;;;;;;5050683;28;19917;-84
2023/07/26 05:33:12;;;;;;;;;;;13.20;99.90;;;;;;5034872;28;19927;-84
2023/07/26 05:35:38;;;;;;;;;;;13.30;99.90;;;;;;5050953;28;19917;-84
2023/07/26 05:38:03;;;;;;;;;;;13.30;99.90;;;;;;5053667;28;19964;-84
2023/07/26 05:40:29;;;;;;;;;;;13.40;99.90;;;;;;5033204;28;19960;-83
2023/07/26 05:42:54;;;;;;;;;;;13.40;99.90;;;;;;5034182;28;20020;-82
2023/07/26 05:45:20;;;;;;;;;;;13.50;99.90;;;;;;5036219;28;20004;-84
2023/07/26 05:47:45;;;;;;;;;;;13.60;99.90;;;;;;5036612;28;20370;-85
2023/07/26 05:50:11;;;;;;;;;;;13.60;99.90;;;;;;5034388;28;19921;-84
2023/07/26 05:52:37;;;;;;;;;;;13.60;99.90;;;;;;5046707;28;19990;-85
2023/07/26 05:55:03;;;;;;;;;;;13.70;99.90;;;;;;5051394;28;19917;-86
2023/07/26 05:57:28;;;;;;;;;;;13.70;99.90;;;;;;5036285;28;20308;-87
2023/07/26 05:59:54;;;;;;;;;;;13.80;99.90;;;;;;5036793;28;20642;-84
2023/07/26 06:02:20;;;;;;;;;;;13.90;99.90;;;;;;5035780;28;20024;-86
2023/07/26 06:04:48;;;;;;;;;;;14.00;99.90;;;;;;5044145;28;19917;-85
2023/07/26 06:07:14;;;;;;;;;;;14.10;99.90;;;;;;5041050;28;19917;-84
2023/07/26 06:09:40;;;;;;;;;;;14.20;99.90;;;;;;5038544;28;19923;-85
2023/07/26 06:12:05;;;;;;;;;;;14.20;99.90;;;;;;5033561;28;19917;-85
2023/07/26 06:14:31;;;;;;;;;;;14.40;99.90;;;;;;5041628;28;20287;-85
2023/07/26 06:16:57;;;;;;;;;;;14.50;99.90;;;;;;5043513;28;19924;-84
2023/07/26 06:19:23;;;;;;;;;;;14.80;99.90;;;;;;5032232;28;20428;-85
2023/07/26 06:21:49;;;;;;;;;;;15.00;99.90;;;;;;5036155;28;19928;-86
2023/07/26 06:24:14;;;;;;;;;;;15.30;99.90;;;;;;5046012;28;19917;-86
2023/07/26 06:26:40;;;;;;;;;;;15.50;99.90;;;;;;5049664;28;19944;-83
2023/07/26 06:29:05;;;;;;;;;;;15.70;99.90;;;;;;5034005;28;20476;-84
2023/07/26 06:31:31;;;;;;;;;;;15.80;99.90;;;;;;5048044;28;20663;-84
2023/07/26 06:33:56;;;;;;;;;;;15.90;99.90;;;;;;5033629;28;19917;-84
2023/07/26 06:36:22;;;;;;;;;;;16.00;99.90;;;;;;5032946;28;20003;-85
2023/07/26 06:38:47;;;;;;;;;;;16.00;99.90;;;;;;5033620;28;20008;-85
2023/07/26 06:41:13;;;;;;;;;;;16.00;99.90;;;;;;5031094;28;20015;-85
2023/07/26 06:43:38;;;;;;;;;;;16.00;99.90;;;;;;5035389;28;20394;-86
2023/07/26 06:46:04;;;;;;;;;;;15.90;99.90;;;;;;5056808;28;19913;-85
2023/07/26 06:48:29;;;;;;;;;;;15.90;99.90;;;;;;5036024;28;19917;-85
2023/07/26 06:50:55;;;;;;;;;;;16.00;99.90;;;;;;5037302;28;19921;-85
2023/07/26 06:53:20;;;;;;;;;;;15.90;99.90;;;;;;5042628;28;21833;-86
2023/07/26 06:55:46;;;;;;;;;;;15.80;99.90;;;;;;5034228;28;20363;-86
2023/07/26 06:58:11;;;;;;;;;;;15.80;99.90;;;;;;5045107;28;20008;-86
2023/07/26 07:00:37;;;;;;;;;;;15.70;99.90;;;;;;5035700;28;20685;-86
2023/07/26 07:03:03;;;;;;;;;;;15.60;99.90;;;;;;5033373;28;19927;-86
2023/07/26 07:05:30;;;;;;;;;;;15.60;99.90;;;;;;5034802;28;19916;-85
2023/07/26 07:07:55;;;;;;;;;;;15.50;99.90;;;;;;5044511;28;20298;-86
2023/07/26 07:10:24;;;;;;;;;;;15.40;99.90;;;;;;5034209;28;20007;-85
2023/07/26 07:12:49;;;;;;;;;;;15.30;99.90;;;;;;5049909;28;19924;-86
2023/07/26 07:15:15;;;;;;;;;;;15.20;99.90;;;;;;5032656;28;19913;-86
2023/07/26 07:17:42;;;;;;;;;;;15.20;99.90;;;;;;5049841;28;19932;-86
2023/07/26 07:20:08;;;;;;;;;;;15.10;99.90;;;;;;5044369;28;19964;-83
2023/07/26 07:22:34;;;;;;;;;;;15.00;99.90;;;;;;5046125;28;20035;-83
2023/07/26 07:24:59;;;;;;;;;;;14.90;99.90;;;;;;5032363;28;19944;-84
2023/07/26 07:27:25;;;;;;;;;;;14.70;99.90;;;;;;5033477;28;19996;-86
2023/07/26 07:29:51;;;;;;;;;;;14.50;99.90;;;;;;5050024;28;19923;-85
2023/07/26 07:32:17;;;;;;;;;;;14.40;99.90;;;;;;5031932;28;20386;-84
2023/07/26 07:34:42;;;;;;;;;;;14.20;99.90;;;;;;5034129;28;20019;-87
2023/07/26 07:37:08;;;;;;;;;;;14.10;99.90;;;;;;5050379;28;19927;-84
2023/07/26 07:39:33;;;;;;;;;;;14.00;99.90;;;;;;5031601;28;19917;-85
2023/07/26 07:41:59;;;;;;;;;;;13.80;99.90;;;;;;5041674;28;19921;-86
2023/07/26 07:44:27;;;;;;;;;;;13.70;99.90;;;;;;5033865;28;20398;-87
2023/07/26 07:46:53;;;;;;;;;;;13.60;99.90;;;;;;5056886;28;20367;-86
2023/07/26 07:49:18;;;;;;;;;;;13.40;99.90;;;;;;5049755;28;19953;-85
2023/07/26 07:51:44;;;;;;;;;;;13.20;99.90;;;;;;5032398;28;19917;-84
2023/07/26 07:54:09;;;;;;;;;;;13.00;99.90;;;;;;5032338;28;19994;-84
2023/07/26 07:56:35;;;;;;;;;;;12.90;99.90;;;;;;5049064;28;19916;-84
2023/07/26 07:59:01;;;;;;;;;;;12.90;99.90;;;;;;5049282;28;19920;-85
2023/07/26 08:01:26;;;;;;;;;;;13.00;99.90;;;;;;5050082;28;19925;-86
2023/07/26 08:03:52;;;;;;;;;;;13.00;99.90;;;;;;5050515;28;19988;-86
2023/07/26 08:06:17;;;;;;;;;;;13.10;99.90;;;;;;5042845;28;20849;-87
2023/07/26 08:08:43;;;;;;;;;;;13.20;99.90;;;;;;5049824;28;20449;-86
2023/07/26 08:11:09;;;;;;;;;;;13.20;99.90;;;;;;5048778;28;20271;-87
2023/07/26 08:13:34;;;;;;;;;;;13.30;99.90;;;;;;5049089;28;19921;-85
2023/07/26 08:16:00;;;;;;;;;;;13.30;99.90;;;;;;5034554;28;19917;-88
2023/07/26 08:18:25;;;;;;;;;;;13.40;99.90;;;;;;5050918;28;19923;-87
2023/07/26 08:20:51;;;;;;;;;;;13.50;99.90;;;;;;5050973;28;19917;-88
2023/07/26 08:23:17;;;;;;;;;;;13.60;99.90;;;;;;5036705;28;20446;-86
2023/07/26 08:25:43;;;;;;;;;;;13.70;99.90;;;;;;5038964;28;19917;-85
2023/07/26 08:28:08;;;;;;;;;;;13.80;99.90;;;;;;5036141;28;19913;-86
2023/07/26 08:30:34;;;;;;;;;;;13.90;99.90;;;;;;5039128;28;19967;-87
2023/07/26 08:32:59;;;;;;;;;;;13.90;99.90;;;;;;5056121;28;20007;-89
2023/07/26 08:35:25;;;;;;;;;;;14.00;99.90;;;;;;5051293;28;19952;-90
2023/07/26 08:37:50;;;;;;;;;;;14.00;99.90;;;;;;5066280;28;19912;-89
2023/07/26 08:40:16;;;;;;;;;;;14.10;99.90;;;;;;5041615;28;19949;-88
2023/07/26 08:42:42;;;;;;;;;;;14.20;99.90;;;;;;5044266;28;20011;-89
2023/07/26 08:45:08;;;;;;;;;;;14.20;99.90;;;;;;5042300;28;19982;-88
2023/07/26 08:47:34;;;;;;;;;;;14.30;99.90;;;;;;5055900;28;19917;-86
2023/07/26 08:50:00;;;;;;;;;;;14.40;99.90;;;;;;5055657;28;20373;-87
2023/07/26 08:52:26;;;;;;;;;;;14.40;99.90;;;;;;5044045;28;19916;-88
2023/07/26 08:54:52;;;;;;;;;;;14.60;99.90;;;;;;5035906;28;19920;-87
2023/07/26 08:57:18;;;;;;;;;;;14.60;99.90;;;;;;5038630;28;20020;-87
2023/07/26 08:59:43;;;;;;;;;;;14.70;99.90;;;;;;5038022;28;19970;-83
2023/07/26 09:02:10;;;;;;;;;;;14.80;99.90;;;;;;5045791;28;19925;-83
2023/07/26 09:04:36;;;;;;;;;;;14.80;99.90;;;;;;5035703;28;19913;-82
2023/07/26 09:07:05;;;;;;;;;;;14.90;99.90;;;;;;5051152;28;20377;-82
2023/07/26 09:09:31;;;;;;;;;;;15.00;99.90;;;;;;5053292;28;19976;-87
2023/07/26 09:11:57;;;;;;;;;;;15.10;99.90;;;;;;5043248;28;20424;-89
2023/07/26 09:14:27;;;;;;;;;;;15.20;99.90;;;;;;5057732;28;19917;-87
2023/07/26 09:16:56;;;;;;;;;;;15.30;99.90;;;;;;5056597;28;19956;-89
2023/07/26 09:19:32;;;;;;;;;;;15.50;99.90;;;;;;5039740;28;19924;-87
2023/07/26 09:21:59;;;;;;;;;;;15.70;99.90;;;;;;5052086;28;19954;-87
2023/07/26 09:24:35;;;;;;;;;;;15.80;99.90;;;;;;5045153;28;20442;-88
2023/07/26 09:27:04;;;;;;;;;;;15.90;99.90;;;;;;5042052;28;19917;-87
2023/07/26 09:29:30;;;;;;;;;;;16.10;99.90;;;;;;5058757;28;19952;-89
2023/07/26 09:31:55;;;;;;;;;;;16.20;99.90;;;;;;5043942;28;20022;-88
2023/07/26 09:34:22;;;;;;;;;;;16.30;99.90;;;;;;5055987;28;19936;-88
2023/07/26 09:36:48;;;;;;;;;;;16.50;99.90;;;;;;5044316;28;19936;-88
2023/07/26 09:39:15;;;;;;;;;;;16.80;99.90;;;;;;5042599;28;19912;-89
2023/07/26 09:41:41;;;;;;;;;;;17.20;99.90;;;;;;5058197;28;20005;-86
2023/07/26 09:44:07;;;;;;;;;;;18.00;99.90;;;;;;5040023;28;19920;-88
2023/07/26 09:46:45;;;;;;;;;;;18.90;99.90;;;;;;5045112;28;20000;-87
2023/07/26 09:49:11;;;;;;;;;;;19.40;99.90;;;;;;5055355;28;19916;-87
2023/07/26 09:51:38;;;;;;;;;;;20.10;99.90;;;;;;5043618;28;19924;-87
2023/07/26 09:54:04;;;;;;;;;;;20.30;99.90;;;;;;5053783;28;19974;-87
2023/07/26 09:56:31;;;;;;;;;;;20.60;99.90;;;;;;5053611;28;19925;-88
2023/07/26 09:58:57;;;;;;;;;;;20.90;99.90;;;;;;5039617;28;19917;-86
2023/07/26 10:01:23;;;;;;;;;;;21.10;99.90;;;;;;5039447;28;19920;-87
2023/07/26 10:03:51;;;;;;;;;;;21.30;99.90;;;;;;5033900;28;19925;-87
2023/07/26 10:06:18;;;;;;;;;;;20.90;99.90;;;;;;5049615;28;19928;-86
2023/07/26 10:08:45;;;;;;;;;;;20.90;99.90;;;;;;5037106;28;19920;-87
2023/07/26 10:11:11;;;;;;;;;;;21.30;99.90;;;;;;5034933;28;19921;-87
2023/07/26 10:13:37;;;;;;;;;;;21.50;99.90;;;;;;5051253;28;19915;-87
2023/07/26 10:16:04;;;;;;;;;;;21.60;99.90;;;;;;5052885;28;19917;-87
2023/07/26 10:18:30;;;;;;;;;;;21.40;99.90;;;;;;5052034;28;19921;-87
2023/07/26 10:21:00;;;;;;;;;;;20.90;99.90;;;;;;5057514;28;20290;-86
2023/07/26 10:23:25;;;;;;;;;;;20.00;99.90;;;;;;5040939;28;19927;-87
2023/07/26 10:25:52;;;;;;;;;;;19.20;99.90;;;;;;5045950;28;19992;-89
2023/07/26 10:28:19;;;;;;;;;;;18.50;99.90;;;;;;5054634;28;19924;-90
2023/07/26 10:30:45;;;;;;;;;;;18.00;99.90;;;;;;5041804;28;19916;-89
2023/07/26 10:33:12;;;;;;;;;;;17.60;99.90;;;;;;5042305;28;19925;-89
2023/07/26 10:35:40;;;;;;;;;;;17.30;99.90;;;;;;5039291;28;19912;-89
2023/07/26 10:38:05;;;;;;;;;;;17.00;99.90;;;;;;5060666;28;19913;-88
2023/07/26 10:40:32;;;;;;;;;;;16.80;99.90;;;;;;5053684;28;19917;-87
2023/07/26 10:42:58;;;;;;;;;;;16.80;99.90;;;;;;5042207;28;19921;-88
2023/07/26 10:45:37;;;;;;;;;;;16.80;99.90;;;;;;5039077;28;19940;-89
2023/07/26 10:48:02;;;;;;;;;;;16.80;99.90;;;;;;5054178;28;20363;-90
2023/07/26 10:50:28;;;;;;;;;;;16.90;99.90;;;;;;5056986;28;19927;-90
2023/07/26 10:52:53;;;;;;;;;;;16.90;99.90;;;;;;5055849;28;19939;-88
2023/07/26 10:55:27;;;;;;;;;;;17.00;99.90;;;;;;5040494;28;19920;-86
2023/07/26 10:57:52;;;;;;;;;;;17.10;99.90;;;;;;5035974;28;20625;-86
2023/07/26 11:00:22;;;;;;;;;;;18.00;99.90;;;;;;5040074;28;19913;-90
2023/07/26 11:02:49;;;;;;;;;;;19.10;99.90;;;;;;5037061;28;19921;-90
2023/07/26 11:05:15;;;;;;;;;;;20.40;99.90;;;;;;5036306;28;19921;-87
2023/07/26 11:07:53;;;;;;;;;;;21.30;99.90;;;;;;5033728;28;19991;-86
2023/07/26 11:10:18;;;;;;;;;;;21.90;99.90;;;;;;5034481;28;19927;-86
2023/07/26 11:12:44;;;;;;;;;;;22.00;99.90;;;;;;5035935;28;19921;-86
2023/07/26 11:15:09;;;;;;;;;;;22.50;99.90;;;;;;5044332;28;19923;-86
2023/07/26 11:17:40;;;;;;;;;;;22.80;99.90;;;;;;5032684;28;19913;-86
2023/07/26 11:20:05;;;;;;;;;;;23.20;99.90;;;;;;5034264;28;19924;-86
2023/07/26 11:22:32;;;;;;;;;;;23.60;99.90;;;;;;5049323;28;19925;-87
2023/07/26 11:25:02;;;;;;;;;;;24.10;99.90;;;;;;5042482;28;21080;-89
2023/07/26 11:27:27;;;;;;;;;;;24.50;99.90;;;;;;5034375;28;19913;-87
2023/07/26 11:29:52;;;;;;;;;;;24.20;99.90;;;;;;5035427;28;19928;-88
2023/07/26 11:32:24;;;;;;;;;;;24.00;99.90;;;;;;5047893;28;20386;-86
2023/07/26 11:34:57;;;;;;;;;;;23.70;99.90;;;;;;5034919;28;19960;-87
2023/07/26 11:37:22;;;;;;;;;;;23.00;99.90;;;;;;5039680;28;19926;-86
2023/07/26 11:40:00;;;;;;;;;;;22.30;99.90;;;;;;5043244;28;19921;-86
2023/07/26 11:42:25;;;;;;;;;;;21.60;99.90;;;;;;5046325;28;21908;-84
2023/07/26 11:44:51;;;;;;;;;;;21.10;99.90;;;;;;5051185;28;19917;-84
2023/07/26 11:47:16;;;;;;;;;;;21.10;99.90;;;;;;5040971;28;19924;-84
2023/07/26 11:49:42;;;;;;;;;;;21.20;99.90;;;;;;5041350;28;19928;-85
2023/07/26 11:52:12;;;;;;;;;;;21.30;99.90;;;;;;5035152;28;19921;-86
2023/07/26 11:54:52;;;;;;;;;;;21.30;99.90;;;;;;5036891;28;19924;-88
2023/07/26 11:57:18;;;;;;;;;;;21.40;99.90;;;;;;5039766;28;19913;-86
2023/07/26 11:59:44;;;;;;;;;;;22.20;99.90;;;;;;5051056;28;20869;-85
2023/07/26 12:02:09;;;;;;;;;;;23.10;99.90;;;;;;5034120;28;19925;-85
2023/07/26 12:04:35;;;;;;;;;;;23.60;99.90;;;;;;5033573;28;20395;-86
2023/07/26 12:07:01;;;;;;;;;;;23.30;99.90;;;;;;5032197;28;20373;-85
2023/07/26 12:09:26;;;;;;;;;;;22.90;99.90;;;;;;5033680;28;19917;-85
2023/07/26 12:11:53;;;;;;;;;;;22.40;99.90;;;;;;5032840;28;19924;-84
2023/07/26 12:14:19;;;;;;;;;;;22.10;99.90;;;;;;5034581;28;19986;-86
2023/07/26 12:16:51;;;;;;;;;;;21.90;99.90;;;;;;5034738;28;19966;-86
2023/07/26 12:19:21;;;;;;;;;;;21.70;99.90;;;;;;5050532;28;20317;-83
2023/07/26 12:21:47;;;;;;;;;;;21.60;99.90;;;;;;5046717;28;19925;-85
2023/07/26 12:24:13;;;;;;;;;;;21.90;99.90;;;;;;5034543;28;19916;-85
2023/07/26 12:26:40;;;;;;;;;;;22.90;99.90;;;;;;5032139;28;19920;-83
2023/07/26 12:29:06;;;;;;;;;;;23.30;99.90;;;;;;5031964;28;19917;-85
2023/07/26 12:31:32;;;;;;;;;;;23.40;99.90;;;;;;5030671;28;20363;-86
2023/07/26 12:34:03;;;;;;;;;;;23.30;99.90;;;;;;5047416;28;20002;-83
2023/07/26 12:36:30;;;;;;;;;;;23.50;99.90;;;;;;5032927;28;19920;-85
2023/07/26 12:38:56;;;;;;;;;;;23.50;99.90;;;;;;5049165;28;19980;-85
2023/07/26 12:41:22;;;;;;;;;;;23.90;99.90;;;;;;5040631;28;19921;-86
2023/07/26 12:43:52;;;;;;;;;;;24.50;99.90;;;;;;5031755;28;19917;-86
2023/07/26 12:46:18;;;;;;;;;;;25.20;99.90;;;;;;5048578;28;19939;-87
2023/07/26 12:48:43;;;;;;;;;;;25.90;99.90;;;;;;5048944;28;19921;-87
2023/07/26 12:51:09;;;;;;;;;;;26.10;99.90;;;;;;5035094;28;19934;-86
2023/07/26 12:53:34;;;;;;;;;;;26.10;99.90;;;;;;5048284;28;20440;-87
2023/07/26 12:56:00;;;;;;;;;;;26.30;99.90;;;;;;5041346;28;20500;-86
2023/07/26 12:58:25;;;;;;;;;;;26.60;99.90;;;;;;5030184;28;19913;-86
2023/07/26 13:00:51;;;;;;;;;;;26.90;99.90;;;;;;5047813;28;19917;-86
2023/07/26 13:03:17;;;;;;;;;;;27.00;99.90;;;;;;5046470;28;19974;-86
2023/07/26 13:05:42;;;;;;;;;;;27.30;99.90;;;;;;5040034;28;20341;-86
2023/07/26 13:08:08;;;;;;;;;;;27.40;99.90;;;;;;5033170;28;19952;-86
2023/07/26 13:10:33;;;;;;;;;;;27.10;99.90;;;;;;5052274;28;19917;-86
2023/07/26 13:12:59;;;;;;;;;;;26.40;99.90;;;;;;5050588;28;19921;-85
2023/07/26 13:15:24;;;;;;;;;;;25.50;99.90;;;;;;5035871;28;19924;-85
2023/07/26 13:17:51;;;;;;;;;;;25.40;99.90;;;;;;5035845;28;19921;-85
2023/07/26 13:20:17;;;;;;;;;;;25.20;99.90;;;;;;5036668;28;19921;-86
2023/07/26 13:22:43;;;;;;;;;;;24.50;99.90;;;;;;5051142;28;21151;-85
2023/07/26 13:25:08;;;;;;;;;;;24.40;99.90;;;;;;5048827;28;20027;-84
2023/07/26 13:27:34;;;;;;;;;;;24.40;99.90;;;;;;5044417;28;19917;-86
2023/07/26 13:30:00;;;;;;;;;;;24.40;99.90;;;;;;5051246;28;20837;-85
2023/07/26 13:32:25;;;;;;;;;;;25.00;99.90;;;;;;5033632;28;19933;-85
2023/07/26 13:34:51;;;;;;;;;;;25.60;99.90;;;;;;5034431;28;20355;-84
2023/07/26 13:37:16;;;;;;;;;;;26.00;99.90;;;;;;5045150;28;19924;-85
2023/07/26 13:39:42;;;;;;;;;;;26.70;99.90;;;;;;5036626;28;19916;-87
2023/07/26 13:42:08;;;;;;;;;;;27.10;99.90;;;;;;5051266;28;19979;-86
2023/07/26 13:44:34;;;;;;;;;;;27.30;99.90;;;;;;5032779;28;19925;-85
2023/07/26 13:46:59;;;;;;;;;;;27.30;99.90;;;;;;5035349;28;19967;-87
2023/07/26 13:49:25;;;;;;;;;;;27.40;99.90;;;;;;5044505;28;19924;-86
2023/07/26 13:51:50;;;;;;;;;;;27.50;99.90;;;;;;5040619;28;19947;-86
2023/07/26 13:54:16;;;;;;;;;;;27.70;99.90;;;;;;5037884;28;19921;-88
2023/07/26 13:56:41;;;;;;;;;;;28.00;99.90;;;;;;5051193;28;19949;-86
2023/07/26 13:59:07;;;;;;;;;;;28.00;99.70;;;;;;5036924;28;19932;-86
2023/07/26 14:01:34;;;;;;;;;;;27.80;99.00;;;;;;5035269;28;19970;-86
2023/07/26 14:03:59;;;;;;;;;;;27.90;99.00;;;;;;5037206;28;19982;-86
2023/07/26 14:06:25;;;;;;;;;;;27.90;99.30;;;;;;5050607;28;20387;-86
2023/07/26 14:08:51;;;;;;;;;;;27.90;99.10;;;;;;5034787;28;19939;-83
2023/07/26 14:11:16;;;;;;;;;;;27.40;99.60;;;;;;5033860;28;20374;-87